Time;durP1;ratioP1;P1;durP2;ratioP2;P2;SDS_P1;SDS_P2;PMS_P1;PMS_P2;Temp;Humidity;BMP_temperature;BMP_pressure;BME280_temperature;BME280_humidity;BME280_pressure;Samples;Min_cycle;Max_cycle;Signal;HPM_P1;HPM_P2
2021/12/21 00:00:37;;;;;;;20.10;7.95;;;-2.10;99.90;;;;;;1893102;75;21083;-71
2021/12/21 00:03:03;;;;;;;17.30;8.55;;;-2.10;99.90;;;;;;1896840;75;21094;-70
2021/12/21 00:05:29;;;;;;;11.48;7.47;;;-2.10;99.90;;;;;;1909723;74;21164;-70
2021/12/21 00:07:56;;;;;;;16.07;7.67;;;-2.10;99.90;;;;;;1892988;75;21159;-70
2021/12/21 00:10:22;;;;;;;13.75;7.75;;;-2.20;99.90;;;;;;1895336;75;21148;-71
2021/12/21 00:15:24;;;;;;;19.70;8.18;;;-2.30;99.90;;;;;;1830825;75;21508;-71
2021/12/21 00:20:46;;;;;;;13.83;7.40;;;-2.30;99.90;;;;;;1899057;75;21136;-71
2021/12/21 00:25:29;;;;;;;16.70;7.85;;;-2.40;99.90;;;;;;1891538;75;21043;-71
2021/12/21 00:27:55;;;;;;;16.23;7.78;;;-2.30;99.90;;;;;;1889588;75;21155;-72
2021/12/21 00:30:22;;;;;;;19.48;7.50;;;-2.30;99.90;;;;;;1892179;74;21143;-72
2021/12/21 00:32:48;;;;;;;11.97;6.90;;;-2.30;99.90;;;;;;1905308;75;21159;-71
2021/12/21 00:35:15;;;;;;;14.70;7.60;;;-2.30;99.90;;;;;;1914024;75;21416;-70
2021/12/21 00:37:43;;;;;;;22.55;7.15;;;-2.30;99.90;;;;;;1913724;74;21490;-71
2021/12/21 00:40:08;;;;;;;16.12;6.85;;;-2.30;99.90;;;;;;1892036;75;21081;-72
2021/12/21 00:42:36;;;;;;;13.20;7.22;;;-2.40;99.90;;;;;;1897705;75;21086;-71
2021/12/21 00:45:02;;;;;;;19.82;8.00;;;-2.30;99.90;;;;;;1896923;74;21120;-70
2021/12/21 00:47:28;;;;;;;27.95;7.53;;;-2.40;99.90;;;;;;1892694;75;21065;-72
2021/12/21 00:50:03;;;;;;;13.58;7.42;;;-2.50;99.90;;;;;;1891406;75;21128;-71
2021/12/21 00:52:28;;;;;;;18.12;6.85;;;-2.50;99.90;;;;;;1898082;74;21286;-71
2021/12/21 00:54:54;;;;;;;12.65;6.67;;;-2.50;99.90;;;;;;1885244;75;21188;-71
2021/12/21 00:57:20;;;;;;;11.85;6.72;;;-2.40;99.90;;;;;;1890815;73;21154;-71
2021/12/21 00:59:46;;;;;;;10.95;6.85;;;-2.40;99.90;;;;;;1889125;74;21144;-71
2021/12/21 01:02:13;;;;;;;16.82;7.35;;;-2.40;99.90;;;;;;1914590;73;21051;-72
2021/12/21 01:04:44;;;;;;;27.20;7.85;;;-2.30;99.90;;;;;;1890572;75;21504;-72
2021/12/21 01:12:53;;;;;;;16.12;6.62;;;-2.50;99.90;;;;;;1884728;74;21065;-72
2021/12/21 01:15:06;;;;;;;8.90;5.20;;;-2.50;99.90;;;;;;1880035;75;21076;-73
2021/12/21 01:17:47;;;;;;;10.43;6.47;;;-2.60;99.90;;;;;;1898563;75;21085;-72
2021/12/21 01:20:13;;;;;;;13.70;7.28;;;-2.50;99.90;;;;;;1886190;75;21090;-71
2021/12/21 01:23:02;;;;;;;11.25;6.25;;;-2.60;99.90;;;;;;1892801;75;21076;-73
2021/12/21 01:28:02;;;;;;;15.15;7.00;;;-2.60;99.90;;;;;;1891300;74;21419;-72
2021/12/21 01:35:41;;;;;;;18.02;7.33;;;-2.70;99.90;;;;;;1886134;74;21537;-72
2021/12/21 01:40:55;;;;;;;11.65;6.70;;;-2.70;99.90;;;;;;1885515;75;21081;-73
2021/12/21 01:43:26;;;;;;;13.18;6.75;;;-2.70;99.90;;;;;;1896563;75;21094;-73
2021/12/21 01:51:15;;;;;;;12.43;6.92;;;-2.70;99.90;;;;;;1901289;75;21103;-71
2021/12/21 01:53:41;;;;;;;10.50;6.78;;;-2.70;99.90;;;;;;1886868;75;21077;-71
2021/12/21 01:56:07;;;;;;;13.32;6.90;;;-2.80;99.90;;;;;;1888270;75;21197;-70
2021/12/21 01:58:33;;;;;;;13.83;7.17;;;-2.70;99.90;;;;;;1901786;75;21159;-71
2021/12/21 02:01:00;;;;;;;15.83;7.58;;;-2.80;99.90;;;;;;1890526;75;21089;-71
2021/12/21 02:03:26;;;;;;;14.00;7.37;;;-2.70;99.90;;;;;;1892956;74;21078;-71
2021/12/21 02:05:52;;;;;;;13.18;6.30;;;-2.70;99.90;;;;;;1896591;73;21167;-70
2021/12/21 02:08:18;;;;;;;16.07;7.25;;;-2.70;99.90;;;;;;1895729;74;21135;-71
2021/12/21 02:10:44;;;;;;;22.27;7.72;;;-2.80;99.90;;;;;;1901498;74;21085;-71
2021/12/21 02:13:10;;;;;;;12.47;6.80;;;-2.80;99.90;;;;;;1896219;74;21065;-71
2021/12/21 02:15:36;;;;;;;14.70;6.30;;;-2.90;99.90;;;;;;1895351;74;21054;-71
2021/12/21 02:21:02;;;;;;;14.23;6.95;;;-2.80;99.90;;;;;;1896611;74;21132;-71
2021/12/21 02:23:41;;;;;;;14.43;6.33;;;-2.80;99.90;;;;;;1902126;74;21516;-72
2021/12/21 02:31:08;;;;;;;14.68;6.87;;;-3.00;99.90;;;;;;1880520;75;21164;-73
2021/12/21 02:33:35;;;;;;;13.83;6.67;;;-2.90;99.90;;;;;;1889628;74;21081;-73
2021/12/21 02:36:01;;;;;;;13.75;6.85;;;-3.00;99.90;;;;;;1885956;74;21207;-73
2021/12/21 02:38:27;;;;;;;19.98;6.87;;;-3.00;99.90;;;;;;1891231;74;21195;-73
2021/12/21 02:40:53;;;;;;;17.98;7.33;;;-3.00;99.90;;;;;;1898215;74;21045;-73
2021/12/21 02:43:19;;;;;;;11.68;6.28;;;-3.00;99.90;;;;;;1887761;74;21233;-74
2021/12/21 02:45:46;;;;;;;17.15;6.87;;;-3.00;99.90;;;;;;1900613;74;21152;-73
2021/12/21 02:48:12;;;;;;;12.55;7.00;;;-3.00;99.90;;;;;;1890403;74;21189;-73
2021/12/21 02:50:38;;;;;;;10.68;6.83;;;-3.00;99.90;;;;;;1885334;75;21077;-73
2021/12/21 02:53:04;;;;;;;13.18;6.37;;;-3.10;99.90;;;;;;1890248;74;21094;-72
2021/12/21 02:55:30;;;;;;;14.58;7.05;;;-3.00;99.90;;;;;;1906593;75;21282;-73
2021/12/21 02:57:57;;;;;;;22.20;7.33;;;-3.00;99.90;;;;;;1889345;74;21082;-73
2021/12/21 03:00:23;;;;;;;12.73;7.25;;;-3.00;99.90;;;;;;1895536;75;21097;-73
2021/12/21 03:02:50;;;;;;;20.60;6.45;;;-3.00;99.90;;;;;;1881942;74;21038;-73
2021/12/21 03:05:16;;;;;;;13.32;6.78;;;-3.00;99.90;;;;;;1887623;74;21582;-72
2021/12/21 03:08:08;;;;;;;12.65;6.62;;;-3.10;99.90;;;;;;1883238;74;21558;-73
2021/12/21 03:10:27;;;;;;;12.07;7.17;;;-3.10;99.90;;;;;;1891051;74;21505;-73
2021/12/21 03:15:20;;;;;;;15.13;7.20;;;-3.10;99.90;;;;;;1892014;74;21139;-73
2021/12/21 03:17:46;;;;;;;13.10;6.30;;;-3.10;99.90;;;;;;1905106;73;21141;-72
2021/12/21 03:20:12;;;;;;;12.80;6.67;;;-3.10;99.90;;;;;;1894204;74;21233;-73
2021/12/21 03:22:39;;;;;;;14.28;6.62;;;-3.00;99.90;;;;;;1890865;74;21042;-71
2021/12/21 03:25:05;;;;;;;11.83;6.35;;;-3.10;99.90;;;;;;1881480;75;21147;-71
2021/12/21 03:27:31;;;;;;;16.52;7.05;;;-3.20;99.90;;;;;;1899375;74;21062;-72
2021/12/21 03:29:57;;;;;;;12.68;5.72;;;-3.20;99.90;;;;;;1904553;74;21086;-71
2021/12/21 03:32:23;;;;;;;15.88;6.80;;;-3.10;99.90;;;;;;1901020;74;21135;-71
2021/12/21 03:34:49;;;;;;;12.37;6.22;;;-3.10;99.90;;;;;;1890283;74;21171;-71
2021/12/21 03:37:15;;;;;;;17.05;5.65;;;-3.20;99.90;;;;;;1887434;74;21082;-72
2021/12/21 03:39:41;;;;;;;8.98;5.92;;;-3.20;99.90;;;;;;1901073;74;21059;-71
2021/12/21 03:42:08;;;;;;;9.28;6.22;;;-3.30;99.90;;;;;;1906905;74;21069;-71
2021/12/21 03:44:34;;;;;;;13.08;6.72;;;-3.20;99.90;;;;;;1889061;74;21162;-72
2021/12/21 03:47:00;;;;;;;8.90;6.00;;;-3.20;99.90;;;;;;1885558;74;21192;-71
2021/12/21 03:51:54;;;;;;;9.73;5.62;;;-3.20;99.90;;;;;;1883658;74;21123;-71
2021/12/21 03:54:20;;;;;;;8.05;4.83;;;-3.20;99.90;;;;;;1887655;75;21078;-73
2021/12/21 03:56:49;;;;;;;9.70;4.87;;;-3.20;99.90;;;;;;1885814;74;21085;-72
2021/12/21 03:59:14;;;;;;;9.13;5.17;;;-3.20;99.90;;;;;;1912247;74;21177;-71
2021/12/21 04:01:40;;;;;;;13.58;5.42;;;-3.30;99.90;;;;;;1910095;74;21051;-71
2021/12/21 04:04:08;;;;;;;8.15;5.28;;;-3.30;99.90;;;;;;1900772;74;21153;-71
2021/12/21 04:06:34;;;;;;;14.78;6.30;;;-3.30;99.90;;;;;;1879877;75;21081;-71
2021/12/21 04:09:00;;;;;;;10.08;5.08;;;-3.30;99.90;;;;;;1899238;74;21136;-71
2021/12/21 04:11:26;;;;;;;9.93;5.28;;;-3.30;99.90;;;;;;1896568;74;21156;-70
2021/12/21 04:13:52;;;;;;;9.63;5.00;;;-3.30;99.90;;;;;;1889262;74;22661;-70
2021/12/21 04:16:18;;;;;;;11.83;6.15;;;-3.30;99.90;;;;;;1894539;74;21189;-70
2021/12/21 04:18:44;;;;;;;14.43;5.65;;;-3.30;99.90;;;;;;1898777;74;21162;-70
2021/12/21 04:21:15;;;;;;;8.75;5.65;;;-3.30;99.90;;;;;;1906296;74;21094;-72
2021/12/21 04:23:39;;;;;;;9.05;4.92;;;-3.30;99.90;;;;;;1889942;74;21038;-72
2021/12/21 04:26:05;;;;;;;10.65;5.60;;;-3.40;99.90;;;;;;1882357;75;21054;-71
2021/12/21 04:28:32;;;;;;;19.17;5.17;;;-3.40;99.90;;;;;;1899798;74;21191;-71
2021/12/21 04:30:58;;;;;;;13.00;6.00;;;-3.40;99.90;;;;;;1897833;75;21196;-71
2021/12/21 04:33:24;;;;;;;9.33;5.60;;;-3.50;99.90;;;;;;1889436;74;21038;-72
2021/12/21 04:35:50;;;;;;;12.25;5.37;;;-3.50;99.90;;;;;;1880590;74;21066;-71
2021/12/21 04:38:27;;;;;;;10.78;5.65;;;-3.50;99.90;;;;;;1891581;74;21078;-71
2021/12/21 04:40:49;;;;;;;13.93;6.08;;;-3.40;99.90;;;;;;1888108;75;21150;-71
2021/12/21 04:43:15;;;;;;;18.98;5.20;;;-3.50;99.90;;;;;;1905337;74;21100;-71
2021/12/21 04:45:41;;;;;;;9.65;5.95;;;-3.40;99.90;;;;;;1890824;74;21085;-71
2021/12/21 04:48:07;;;;;;;13.35;5.60;;;-3.40;99.90;;;;;;1891143;74;21190;-71
2021/12/21 04:50:33;;;;;;;15.40;5.58;;;-3.40;99.90;;;;;;1894318;75;21042;-71
2021/12/21 04:52:59;;;;;;;9.10;5.15;;;-3.40;99.90;;;;;;1895812;74;21077;-71
2021/12/21 04:55:25;;;;;;;11.10;5.80;;;-3.50;99.90;;;;;;1899857;74;21135;-71
2021/12/21 04:57:51;;;;;;;10.50;5.65;;;-3.50;99.90;;;;;;1894053;75;21085;-71
2021/12/21 05:00:17;;;;;;;13.55;5.53;;;-3.50;99.90;;;;;;1881558;75;21038;-71
2021/12/21 05:02:44;;;;;;;10.60;5.97;;;-3.60;99.90;;;;;;1887446;74;21151;-71
2021/12/21 05:05:10;;;;;;;11.53;5.20;;;-3.60;99.90;;;;;;1900697;74;21136;-71
2021/12/21 05:07:38;;;;;;;16.40;5.53;;;-3.50;99.90;;;;;;1899025;74;21162;-70
2021/12/21 05:10:04;;;;;;;14.70;5.62;;;-3.60;99.90;;;;;;1881487;75;21153;-71
2021/12/21 05:12:30;;;;;;;14.33;5.78;;;-3.60;99.90;;;;;;1893328;75;21214;-71
2021/12/21 05:14:56;;;;;;;13.75;5.33;;;-3.60;99.90;;;;;;1894571;74;21501;-71
2021/12/21 05:17:23;;;;;;;20.40;6.35;;;-3.60;99.90;;;;;;1886045;74;21543;-71
2021/12/21 05:19:49;;;;;;;7.67;5.62;;;-3.60;99.90;;;;;;1885292;74;21470;-71
2021/12/21 05:22:15;;;;;;;8.53;5.42;;;-3.70;99.90;;;;;;1886424;74;21501;-71
2021/12/21 05:24:41;;;;;;;8.28;5.55;;;-3.70;99.90;;;;;;1890564;74;21119;-71
2021/12/21 05:27:07;;;;;;;14.80;5.47;;;-3.60;99.90;;;;;;1889531;74;21078;-71
2021/12/21 05:29:33;;;;;;;13.18;6.12;;;-3.70;99.90;;;;;;1887676;74;21147;-73
2021/12/21 05:32:00;;;;;;;11.05;5.78;;;-3.70;99.90;;;;;;1893294;74;21035;-72
2021/12/21 05:34:26;;;;;;;13.32;5.45;;;-3.70;99.90;;;;;;1885979;75;21178;-71
2021/12/21 05:36:52;;;;;;;12.95;5.97;;;-3.80;99.90;;;;;;1911173;74;21135;-71
2021/12/21 05:39:22;;;;;;;13.13;6.17;;;-3.80;99.90;;;;;;1889462;74;21094;-71
2021/12/21 05:41:50;;;;;;;11.25;5.58;;;-3.90;99.90;;;;;;1883523;75;21038;-72
2021/12/21 05:44:14;;;;;;;10.23;5.40;;;-3.90;99.90;;;;;;1883074;74;21151;-73
2021/12/21 05:46:40;;;;;;;10.18;6.17;;;-4.00;99.90;;;;;;1896514;74;21073;-72
2021/12/21 05:49:06;;;;;;;10.55;5.60;;;-3.90;99.90;;;;;;1888443;74;21086;-72
2021/12/21 05:51:32;;;;;;;12.95;5.65;;;-4.00;99.90;;;;;;1894436;74;21069;-71
2021/12/21 05:53:58;;;;;;;9.95;5.50;;;-3.90;99.90;;;;;;1883774;74;21207;-70
2021/12/21 05:56:24;;;;;;;10.65;5.00;;;-3.90;99.90;;;;;;1895185;74;21082;-72
2021/12/21 05:58:50;;;;;;;11.15;6.25;;;-3.90;99.90;;;;;;1884969;75;21152;-70
2021/12/21 06:01:16;;;;;;;9.80;6.40;;;-3.80;99.90;;;;;;1892689;74;21142;-72
2021/12/21 06:03:43;;;;;;;15.20;5.70;;;-3.90;99.90;;;;;;1885401;75;21081;-72
2021/12/21 06:06:13;;;;;;;9.95;5.58;;;-3.90;99.90;;;;;;1900585;74;21502;-72
2021/12/21 06:08:38;;;;;;;11.68;6.20;;;-3.90;99.90;;;;;;1903788;74;21196;-73
2021/12/21 06:11:06;;;;;;;14.10;6.47;;;-3.90;99.90;;;;;;1895451;75;21493;-72
2021/12/21 06:26:44;;;;;;;12.60;7.28;;;-4.00;99.90;;;;;;1894317;75;21159;-72
2021/12/21 06:29:10;;;;;;;11.33;6.78;;;-4.00;99.90;;;;;;1880212;74;21257;-71
2021/12/21 06:31:36;;;;;;;15.18;6.80;;;-4.10;99.90;;;;;;1899512;74;21172;-72
2021/12/21 06:34:02;;;;;;;11.80;6.42;;;-4.00;99.90;;;;;;1899769;74;21081;-73
2021/12/21 06:36:29;;;;;;;14.93;7.35;;;-4.00;99.90;;;;;;1897353;74;21167;-72
2021/12/21 06:38:55;;;;;;;13.38;7.03;;;-4.00;99.90;;;;;;1893359;74;21577;-71
2021/12/21 06:41:21;;;;;;;13.15;7.20;;;-4.00;99.90;;;;;;1893998;75;21497;-73
2021/12/21 06:43:47;;;;;;;13.05;6.67;;;-4.00;99.90;;;;;;1889652;75;22854;-73
2021/12/21 06:51:49;;;;;;;17.77;7.80;;;-4.00;99.90;;;;;;1893429;75;21148;-74
2021/12/21 06:54:11;;;;;;;15.08;6.45;;;-4.10;99.90;;;;;;1881891;75;21278;-72
2021/12/21 06:56:37;;;;;;;15.90;7.08;;;-4.00;99.90;;;;;;1881013;75;21151;-73
2021/12/21 06:59:03;;;;;;;14.73;7.05;;;-4.00;99.90;;;;;;1892890;74;21069;-74
2021/12/21 07:01:30;;;;;;;15.83;7.10;;;-4.00;99.90;;;;;;1898932;75;21147;-73
2021/12/21 07:03:56;;;;;;;12.50;8.08;;;-4.00;99.90;;;;;;1902983;74;21043;-73
2021/12/21 07:06:23;;;;;;;18.05;7.60;;;-4.10;99.90;;;;;;1884541;74;21156;-73
2021/12/21 07:19:31;;;;;;;12.37;7.30;;;-4.20;99.90;;;;;;1877283;74;21070;-72
2021/12/21 07:21:57;;;;;;;15.23;7.28;;;-4.20;99.90;;;;;;1890546;74;21143;-73
2021/12/21 07:24:23;;;;;;;15.08;6.87;;;-4.20;99.90;;;;;;1894960;74;21461;-73
2021/12/21 07:26:49;;;;;;;18.87;6.85;;;-4.30;99.90;;;;;;1908482;74;21459;-71
2021/12/21 07:29:15;;;;;;;16.70;6.65;;;-4.30;99.90;;;;;;1903113;74;21074;-72
2021/12/21 07:31:42;;;;;;;12.58;6.35;;;-4.20;99.90;;;;;;1898756;73;21269;-73
2021/12/21 07:34:08;;;;;;;15.18;7.72;;;-4.20;99.90;;;;;;1890908;74;21217;-72
2021/12/21 07:36:34;;;;;;;15.43;7.83;;;-4.20;99.90;;;;;;1894728;73;21153;-72
2021/12/21 07:39:00;;;;;;;14.15;7.58;;;-4.20;99.90;;;;;;1889961;74;21221;-72
2021/12/21 07:41:26;;;;;;;16.73;7.72;;;-4.20;99.90;;;;;;1890434;74;21081;-73
2021/12/21 07:43:52;;;;;;;13.70;8.03;;;-4.10;99.90;;;;;;1885016;75;21184;-72
2021/12/21 07:46:19;;;;;;;20.27;9.63;;;-4.10;99.90;;;;;;1889426;75;21073;-73
2021/12/21 07:48:45;;;;;;;23.73;8.25;;;-4.10;99.90;;;;;;1892191;74;21272;-73
2021/12/21 07:51:11;;;;;;;14.80;8.20;;;-4.00;99.90;;;;;;1888316;74;21198;-72
2021/12/21 07:53:37;;;;;;;15.58;8.13;;;-4.00;99.90;;;;;;1899921;74;21050;-72
2021/12/21 07:56:03;;;;;;;15.90;8.95;;;-4.00;99.90;;;;;;1894787;74;21163;-73
2021/12/21 07:58:29;;;;;;;22.07;8.00;;;-3.90;99.90;;;;;;1888708;74;21249;-73
2021/12/21 08:00:56;;;;;;;16.55;9.08;;;-3.90;99.90;;;;;;1881011;75;21155;-72
2021/12/21 08:03:22;;;;;;;17.92;9.05;;;-3.80;99.90;;;;;;1893477;74;21069;-72
2021/12/21 08:05:52;;;;;;;18.75;9.35;;;-3.80;99.90;;;;;;1890271;74;21197;-72
2021/12/21 08:08:19;;;;;;;22.00;9.28;;;-3.70;99.90;;;;;;1893394;74;21127;-73
2021/12/21 08:10:51;;;;;;;19.02;9.85;;;-3.70;99.90;;;;;;1892252;74;21187;-73
2021/12/21 08:13:11;;;;;;;13.15;8.35;;;-3.70;99.90;;;;;;1885454;74;21082;-72
2021/12/21 08:15:37;;;;;;;18.50;10.15;;;-3.60;99.90;;;;;;1887085;74;21045;-73
2021/12/21 08:18:04;;;;;;;20.25;9.05;;;-3.60;99.90;;;;;;1899435;74;21074;-73
2021/12/21 08:20:30;;;;;;;17.70;8.40;;;-3.50;99.90;;;;;;1890034;73;21151;-73
2021/12/21 08:22:57;;;;;;;18.40;8.65;;;-3.40;99.90;;;;;;1904741;75;22944;-72
2021/12/21 08:25:25;;;;;;;15.53;9.03;;;-3.30;99.90;;;;;;1886712;75;21269;-72
2021/12/21 08:27:50;;;;;;;19.12;10.35;;;-3.20;99.90;;;;;;1889868;75;21124;-74
2021/12/21 08:30:17;;;;;;;24.50;10.20;;;-3.00;99.90;;;;;;1884720;75;21069;-73
2021/12/21 08:32:43;;;;;;;28.07;9.90;;;-3.00;99.90;;;;;;1885012;74;21139;-75
2021/12/21 08:35:12;;;;;;;24.65;12.28;;;-3.00;99.90;;;;;;1899677;75;21047;-74
2021/12/21 08:37:37;;;;;;;24.55;12.55;;;-2.90;99.90;;;;;;1889576;74;21070;-75
2021/12/21 08:40:03;;;;;;;34.03;12.20;;;-2.80;99.90;;;;;;1892292;75;21454;-73
2021/12/21 08:42:29;;;;;;;29.12;11.53;;;-2.80;99.90;;;;;;1900886;74;21512;-73
2021/12/21 08:44:56;;;;;;;20.62;9.85;;;-2.70;99.90;;;;;;1909792;74;21181;-74
2021/12/21 08:47:23;;;;;;;18.50;9.58;;;-2.60;99.90;;;;;;1904093;74;21435;-74
2021/12/21 08:49:49;;;;;;;18.00;10.28;;;-2.50;99.90;;;;;;1894903;74;21486;-73
2021/12/21 08:52:16;;;;;;;20.92;11.35;;;-2.40;99.90;;;;;;1915781;74;21074;-77
2021/12/21 08:54:42;;;;;;;22.95;9.93;;;-2.10;99.90;;;;;;1903963;74;21832;-76
2021/12/21 08:57:08;;;;;;;32.95;9.90;;;-1.80;99.90;;;;;;1891957;74;21077;-76
2021/12/21 08:59:35;;;;;;;20.02;9.90;;;-1.80;99.90;;;;;;1887081;75;21164;-77
2021/12/21 09:02:01;;;;;;;19.32;9.75;;;-1.50;99.90;;;;;;1886621;74;21114;-76
2021/12/21 09:04:27;;;;;;;19.12;10.90;;;-1.30;99.90;;;;;;1890422;74;21081;-77
2021/12/21 09:06:53;;;;;;;19.30;9.73;;;-1.00;99.90;;;;;;1885907;74;21457;-76
2021/12/21 09:09:19;;;;;;;14.85;9.40;;;-0.90;99.90;;;;;;1901884;74;21135;-76
2021/12/21 09:11:46;;;;;;;22.32;10.55;;;-0.70;99.90;;;;;;1906187;74;21076;-78
2021/12/21 09:14:12;;;;;;;21.55;8.88;;;-0.40;99.90;;;;;;1888351;74;21318;-77
2021/12/21 09:16:38;;;;;;;23.52;9.23;;;-0.50;99.90;;;;;;1892572;74;21363;-77
2021/12/21 09:19:04;;;;;;;33.55;8.83;;;-0.30;99.90;;;;;;1885868;73;21084;-75
2021/12/21 09:21:30;;;;;;;20.40;9.00;;;-0.60;99.90;;;;;;1890870;75;21105;-77
2021/12/21 09:23:56;;;;;;;25.12;9.55;;;-0.90;99.90;;;;;;1888968;75;21151;-77
2021/12/21 09:26:23;;;;;;;16.65;10.03;;;-0.70;99.90;;;;;;1892361;74;21069;-76
2021/12/21 09:28:49;;;;;;;22.87;9.60;;;-0.50;99.90;;;;;;1911478;74;21074;-77
2021/12/21 09:31:15;;;;;;;16.30;9.15;;;-0.20;99.90;;;;;;1892340;74;21077;-76
2021/12/21 09:33:41;;;;;;;13.50;8.25;;;0.40;99.90;;;;;;1885505;75;21065;-75
2021/12/21 09:36:07;;;;;;;21.90;8.83;;;0.90;99.90;;;;;;1884466;74;21076;-76
2021/12/21 09:38:34;;;;;;;22.15;8.78;;;1.30;99.90;;;;;;1885825;74;21163;-78
2021/12/21 09:41:00;;;;;;;25.50;9.08;;;1.20;99.90;;;;;;1893800;75;21074;-75
2021/12/21 09:43:27;;;;;;;25.43;9.80;;;1.30;99.90;;;;;;1908888;75;21047;-77
2021/12/21 09:45:53;;;;;;;14.78;8.50;;;1.80;99.90;;;;;;1912440;74;21278;-77
2021/12/21 09:48:20;;;;;;;17.52;7.87;;;1.70;99.90;;;;;;1906202;74;21192;-78
2021/12/21 09:50:46;;;;;;;21.75;9.18;;;1.00;99.90;;;;;;1908121;74;21094;-77
2021/12/21 09:53:12;;;;;;;24.85;8.68;;;1.50;99.90;;;;;;1883091;75;21081;-76
2021/12/21 09:55:40;;;;;;;16.85;8.20;;;1.80;99.90;;;;;;1885227;75;21164;-75
2021/12/21 09:58:06;;;;;;;17.73;8.68;;;1.60;99.90;;;;;;1886780;75;21170;-77
2021/12/21 10:00:34;;;;;;;16.75;9.10;;;1.60;99.90;;;;;;1898338;74;21128;-77
2021/12/21 10:03:04;;;;;;;22.32;9.08;;;1.60;99.90;;;;;;1890301;75;21106;-78
2021/12/21 10:05:31;;;;;;;20.32;8.70;;;2.50;99.90;;;;;;1885461;75;21069;-76
2021/12/21 10:07:59;;;;;;;14.18;8.38;;;2.40;99.90;;;;;;1903043;74;21089;-75
2021/12/21 10:10:25;;;;;;;18.60;8.40;;;2.20;99.90;;;;;;1892752;75;21096;-74
2021/12/21 10:12:51;;;;;;;14.23;7.78;;;2.30;99.90;;;;;;1887852;74;21082;-76
2021/12/21 10:15:17;;;;;;;18.95;7.62;;;2.50;99.90;;;;;;1896503;75;21077;-77
2021/12/21 10:17:43;;;;;;;20.52;7.45;;;2.90;99.90;;;;;;1887240;74;21135;-76
2021/12/21 10:20:09;;;;;;;10.45;6.85;;;2.80;99.90;;;;;;1897658;75;21116;-75
2021/12/21 10:22:37;;;;;;;12.35;6.60;;;3.10;99.90;;;;;;1900617;74;21073;-78
2021/12/21 10:25:03;;;;;;;12.28;6.20;;;3.40;99.90;;;;;;1889310;75;21068;-75
2021/12/21 10:27:29;;;;;;;14.30;7.28;;;3.50;99.90;;;;;;1891687;75;21074;-77
2021/12/21 10:29:55;;;;;;;19.15;6.72;;;3.90;99.90;;;;;;1889402;75;21127;-77
2021/12/21 10:32:23;;;;;;;18.40;7.22;;;4.10;99.90;;;;;;1899238;75;21077;-78
2021/12/21 10:34:49;;;;;;;17.42;7.00;;;4.60;99.90;;;;;;1903760;74;21082;-77
2021/12/21 10:37:15;;;;;;;20.57;7.47;;;4.60;99.90;;;;;;1905503;74;21531;-78
2021/12/21 10:39:43;;;;;;;19.10;7.80;;;4.50;99.90;;;;;;1892594;75;21563;-78
2021/12/21 10:42:09;;;;;;;12.25;6.75;;;4.10;99.90;;;;;;1908031;75;21551;-76
2021/12/21 10:44:37;;;;;;;25.23;6.80;;;4.30;99.90;;;;;;1897537;75;21051;-78
2021/12/21 10:47:05;;;;;;;13.05;6.85;;;4.60;99.90;;;;;;1885432;75;21081;-77
2021/12/21 10:49:31;;;;;;;17.27;6.40;;;4.70;99.90;;;;;;1887238;75;21232;-77
2021/12/21 10:52:00;;;;;;;9.85;6.22;;;4.60;99.90;;;;;;1885062;75;21265;-81
2021/12/21 10:54:26;;;;;;;11.63;6.10;;;4.20;99.90;;;;;;1893869;75;21254;-81
2021/12/21 10:56:52;;;;;;;16.90;6.50;;;4.60;99.90;;;;;;1892881;75;21156;-78
2021/12/21 10:59:20;;;;;;;13.95;6.30;;;5.00;99.90;;;;;;1908971;75;21070;-79
2021/12/21 11:01:46;;;;;;;13.18;7.08;;;4.70;99.90;;;;;;1911483;73;21143;-81
2021/12/21 11:04:12;;;;;;;11.12;6.20;;;4.70;99.90;;;;;;1894579;74;21575;-80
2021/12/21 11:06:40;;;;;;;12.03;6.12;;;4.70;99.90;;;;;;1900801;75;21049;-80
2021/12/21 11:09:09;;;;;;;17.75;6.90;;;4.90;99.90;;;;;;1893111;74;21544;-80
2021/12/21 11:11:43;;;;;;;12.43;6.08;;;5.00;99.90;;;;;;1902347;74;21203;-79
2021/12/21 11:14:03;;;;;;;14.45;5.97;;;5.60;99.90;;;;;;1886459;74;21228;-80
2021/12/21 11:16:29;;;;;;;15.48;5.75;;;5.30;99.90;;;;;;1899235;75;21073;-79
2021/12/21 11:18:55;;;;;;;15.13;5.00;;;5.20;99.90;;;;;;1900121;74;21046;-80
2021/12/21 11:21:21;;;;;;;11.60;5.97;;;5.80;99.90;;;;;;1887296;74;21155;-81
2021/12/21 11:23:47;;;;;;;17.48;6.25;;;6.20;99.90;;;;;;1893095;74;21081;-80
2021/12/21 11:26:15;;;;;;;12.07;5.78;;;6.10;99.90;;;;;;1910036;75;21144;-80
2021/12/21 11:28:43;;;;;;;8.93;5.20;;;5.30;99.90;;;;;;1915899;74;21134;-81
2021/12/21 11:31:09;;;;;;;12.93;5.97;;;5.60;99.90;;;;;;1900934;74;21081;-80
2021/12/21 11:33:39;;;;;;;16.62;5.83;;;5.50;99.90;;;;;;1891802;75;21163;-79
2021/12/21 11:38:48;;;;;;;10.70;5.97;;;5.80;99.90;;;;;;1896147;75;21174;-80
2021/12/21 11:41:14;;;;;;;9.08;5.40;;;6.40;99.90;;;;;;1881631;74;21077;-81
2021/12/21 11:43:42;;;;;;;15.28;5.62;;;6.60;99.90;;;;;;1888893;74;21208;-83
2021/12/21 11:46:08;;;;;;;11.15;5.15;;;6.80;99.90;;;;;;1913732;74;21568;-81
2021/12/21 11:48:37;;;;;;;13.48;5.25;;;6.60;99.90;;;;;;1889392;75;21090;-82
2021/12/21 11:51:03;;;;;;;9.18;5.12;;;6.80;99.90;;;;;;1887719;75;21121;-81
2021/12/21 11:53:29;;;;;;;17.95;5.45;;;7.30;99.90;;;;;;1890699;74;21159;-78
2021/12/21 11:55:55;;;;;;;13.45;6.00;;;7.00;99.90;;;;;;1889671;75;21086;-79
2021/12/21 11:58:21;;;;;;;15.72;5.58;;;7.20;99.90;;;;;;1895158;75;21078;-78
2021/12/21 12:00:48;;;;;;;11.78;5.30;;;7.40;99.90;;;;;;1887639;75;21113;-80
2021/12/21 12:03:18;;;;;;;7.20;5.00;;;7.90;99.90;;;;;;1910605;73;21059;-79
2021/12/21 12:05:44;;;;;;;14.90;5.08;;;7.90;99.90;;;;;;1881035;75;21542;-79
2021/12/21 12:08:10;;;;;;;11.12;5.25;;;7.40;99.90;;;;;;1896402;75;21155;-79
2021/12/21 12:10:37;;;;;;;8.80;4.95;;;6.80;99.90;;;;;;1899416;75;21082;-79
2021/12/21 12:13:03;;;;;;;9.15;4.83;;;7.20;99.90;;;;;;1899791;75;21077;-77
2021/12/21 12:15:29;;;;;;;11.35;4.85;;;7.20;99.90;;;;;;1884608;75;21046;-75
2021/12/21 12:17:57;;;;;;;7.92;4.35;;;7.00;99.90;;;;;;1896702;74;21462;-80
2021/12/21 12:20:23;;;;;;;7.53;4.45;;;7.30;99.90;;;;;;1892640;75;21078;-82
2021/12/21 12:22:49;;;;;;;8.75;4.75;;;7.20;99.90;;;;;;1905474;73;21566;-81
2021/12/21 12:25:21;;;;;;;7.40;4.53;;;7.00;99.90;;;;;;1905448;74;21074;-83
2021/12/21 12:28:05;;;;;;;9.38;4.47;;;7.40;99.90;;;;;;1879638;75;21084;-85
2021/12/21 12:30:18;;;;;;;8.75;4.35;;;7.60;99.90;;;;;;1883144;75;21223;-83
2021/12/21 12:32:46;;;;;;;7.78;4.12;;;7.90;99.90;;;;;;1896608;75;21152;-81
2021/12/21 12:35:12;;;;;;;17.62;4.05;;;8.00;99.90;;;;;;1890512;75;21059;-83
2021/12/21 12:37:38;;;;;;;12.18;4.33;;;8.00;99.90;;;;;;1904635;75;21197;-84
2021/12/21 12:40:04;;;;;;;9.65;4.17;;;7.90;99.90;;;;;;1896345;75;21155;-78
2021/12/21 12:42:32;;;;;;;8.80;4.15;;;7.90;99.90;;;;;;1892990;75;21101;-79
2021/12/21 12:44:58;;;;;;;8.90;3.47;;;7.80;99.90;;;;;;1901353;74;21081;-77
2021/12/21 12:47:24;;;;;;;5.67;3.20;;;7.90;99.90;;;;;;1913508;74;21163;-79
2021/12/21 12:49:52;;;;;;;12.85;4.15;;;8.40;99.90;;;;;;1907397;75;21153;-79
2021/12/21 12:52:18;;;;;;;7.55;3.80;;;8.60;99.90;;;;;;1892433;74;21129;-78
2021/12/21 12:54:44;;;;;;;10.15;3.60;;;8.30;99.90;;;;;;1892680;75;21168;-79
2021/12/21 12:57:10;;;;;;;5.15;3.50;;;8.40;99.90;;;;;;1910620;75;21163;-79
2021/12/21 12:59:37;;;;;;;6.78;3.77;;;8.50;99.90;;;;;;1902899;75;21074;-79
2021/12/21 13:02:03;;;;;;;4.72;3.20;;;8.30;99.90;;;;;;1893398;75;21082;-79
2021/12/21 13:04:29;;;;;;;7.53;3.70;;;8.40;99.90;;;;;;1902670;75;21085;-77
2021/12/21 13:06:55;;;;;;;7.60;3.90;;;8.50;99.90;;;;;;1890752;75;21055;-78
2021/12/21 13:09:21;;;;;;;13.13;4.22;;;8.80;99.90;;;;;;1913559;75;21081;-79
2021/12/21 13:11:47;;;;;;;5.70;4.03;;;9.30;99.90;;;;;;1895675;74;21101;-79
2021/12/21 13:14:13;;;;;;;7.97;4.17;;;9.10;99.90;;;;;;1889341;75;21155;-78
2021/12/21 13:16:41;;;;;;;9.05;3.25;;;8.70;99.90;;;;;;1902598;73;21159;-78
2021/12/21 13:19:07;;;;;;;7.45;3.72;;;8.80;99.90;;;;;;1898423;75;21127;-79
2021/12/21 13:21:33;;;;;;;7.75;3.58;;;8.90;99.90;;;;;;1895937;74;21160;-79
2021/12/21 13:24:02;;;;;;;9.08;3.58;;;9.00;99.90;;;;;;1899581;74;21109;-78
2021/12/21 13:26:28;;;;;;;10.23;4.22;;;9.10;99.90;;;;;;1889955;74;21114;-78
2021/12/21 13:28:59;;;;;;;8.08;2.65;;;8.50;99.90;;;;;;1889417;75;21144;-77
2021/12/21 13:31:24;;;;;;;7.95;2.42;;;8.20;99.90;;;;;;1899879;74;21129;-77
2021/12/21 13:33:50;;;;;;;6.90;2.27;;;7.70;99.90;;;;;;1885937;75;21064;-79
2021/12/21 13:36:16;;;;;;;4.58;2.35;;;7.80;99.90;;;;;;1901299;75;21214;-78
2021/12/21 13:38:42;;;;;;;3.35;2.00;;;8.00;99.90;;;;;;1894515;74;21210;-79
2021/12/21 13:41:09;;;;;;;3.20;2.05;;;7.80;99.90;;;;;;1879603;74;21151;-79
2021/12/21 13:43:35;;;;;;;7.90;2.20;;;8.40;99.90;;;;;;1888795;75;21078;-77
2021/12/21 13:46:01;;;;;;;6.15;2.33;;;8.30;99.90;;;;;;1889914;74;21176;-78
2021/12/21 13:48:27;;;;;;;2.02;1.72;;;7.90;99.90;;;;;;1894274;73;21105;-78
2021/12/21 13:50:53;;;;;;;3.42;1.98;;;8.00;99.90;;;;;;1891840;74;21485;-78
2021/12/21 13:53:19;;;;;;;3.85;1.98;;;7.80;99.90;;;;;;1901082;74;21862;-79